N46TW KART-KIAG
Flight info
| Callsign | N46TW |
|---|---|
| Flight time | N/A |
| Altitude | 20000 |
| Route | BRUIN SYR ROC |
| Aircraft | PC12/L-SDFGRWY/S |
Departure
| Time | 2026-05-06 01:07 |
|---|---|
| Airport | Watertown International Airport (KART) |
Arrival
| Time | N/A |
|---|---|
| Airport | Niagara Falls International Airport (KIAG) |
| Time | Latitude | Longitude | Altitude | Speed | Heading |
|---|---|---|---|---|---|
| 2026-05-06 00:51 | 43.99372 | -76.02353 | 315 ft | 0 kts | 95° |
| 2026-05-06 01:03 | 43.99371 | -76.02347 | 315 ft | 2 kts | 114° |
| 2026-05-06 01:03 | 43.99337 | -76.02335 | 315 ft | 8 kts | 173° |
| 2026-05-06 01:03 | 43.99321 | -76.02253 | 315 ft | 12 kts | 62° |
| 2026-05-06 01:04 | 43.99377 | -76.02145 | 315 ft | 14 kts | 51° |
| 2026-05-06 01:04 | 43.99438 | -76.02032 | 318 ft | 14 kts | 53° |
| 2026-05-06 01:04 | 43.99511 | -76.01895 | 318 ft | 18 kts | 54° |
| 2026-05-06 01:04 | 43.99586 | -76.01756 | 320 ft | 17 kts | 51° |
| 2026-05-06 01:05 | 43.99655 | -76.01627 | 322 ft | 15 kts | 54° |
| 2026-05-06 01:05 | 43.99664 | -76.01545 | 322 ft | 9 kts | 140° |
| 2026-05-06 01:05 | 43.99661 | -76.01541 | 322 ft | 0 kts | 145° |
| 2026-05-06 01:05 | 43.99655 | -76.01536 | 322 ft | 7 kts | 144° |
| 2026-05-06 01:06 | 43.99589 | -76.01502 | 322 ft | 12 kts | 212° |
| 2026-05-06 01:06 | 43.99514 | -76.01632 | 322 ft | 34 kts | 231° |
| 2026-05-06 01:06 | 43.99178 | -76.02260 | 360 ft | 111 kts | 233° |
| 2026-05-06 01:06 | 43.98691 | -76.03076 | 845 ft | 119 kts | 227° |
| 2026-05-06 01:07 | 43.98023 | -76.03813 | 1256 ft | 136 kts | 212° |
| 2026-05-06 01:07 | 43.97078 | -76.04300 | 1833 ft | 142 kts | 188° |
| 2026-05-06 01:07 | 43.96039 | -76.04188 | 2276 ft | 158 kts | 171° |
| 2026-05-06 01:07 | 43.95059 | -76.03921 | 3034 ft | 147 kts | 181° |
| 2026-05-06 01:08 | 43.94064 | -76.03893 | 3690 ft | 140 kts | 188° |
| 2026-05-06 01:08 | 43.93147 | -76.04007 | 4382 ft | 131 kts | 197° |
| 2026-05-06 01:08 | 43.92292 | -76.04175 | 5052 ft | 124 kts | 199° |
| 2026-05-06 01:08 | 43.91448 | -76.04395 | 5642 ft | 123 kts | 199° |
| 2026-05-06 01:09 | 43.90643 | -76.04600 | 6249 ft | 119 kts | 200° |
| 2026-05-06 01:09 | 43.89849 | -76.04794 | 6840 ft | 115 kts | 201° |
| 2026-05-06 01:09 | 43.89085 | -76.05030 | 7371 ft | 115 kts | 201° |
| 2026-05-06 01:09 | 43.88309 | -76.05230 | 7932 ft | 112 kts | 202° |
| 2026-05-06 01:10 | 43.87548 | -76.05447 | 8332 ft | 119 kts | 204° |
| 2026-05-06 01:10 | 43.86762 | -76.05682 | 8965 ft | 109 kts | 203° |
| 2026-05-06 01:10 | 43.86020 | -76.05907 | 9454 ft | 114 kts | 203° |
| 2026-05-06 01:10 | 43.85287 | -76.06121 | 10090 ft | 109 kts | 204° |
| 2026-05-06 01:11 | 43.84548 | -76.06339 | 10663 ft | 109 kts | 205° |
| 2026-05-06 01:11 | 43.83811 | -76.06561 | 11167 ft | 111 kts | 204° |
| 2026-05-06 01:11 | 43.83066 | -76.06777 | 11667 ft | 113 kts | 205° |
| 2026-05-06 01:11 | 43.82290 | -76.07006 | 12161 ft | 115 kts | 204° |
| 2026-05-06 01:12 | 43.81502 | -76.07236 | 12615 ft | 118 kts | 204° |
| 2026-05-06 01:12 | 43.80711 | -76.07463 | 13095 ft | 119 kts | 205° |
| 2026-05-06 01:12 | 43.79926 | -76.07694 | 13575 ft | 117 kts | 204° |
| 2026-05-06 01:12 | 43.79120 | -76.07931 | 13953 ft | 122 kts | 204° |
| 2026-05-06 01:13 | 43.78293 | -76.08169 | 14429 ft | 120 kts | 205° |
| 2026-05-06 01:13 | 43.77485 | -76.08405 | 14837 ft | 122 kts | 205° |
| 2026-05-06 01:13 | 43.76664 | -76.08644 | 15270 ft | 121 kts | 204° |
| 2026-05-06 01:13 | 43.75843 | -76.08881 | 15655 ft | 123 kts | 205° |
| 2026-05-06 01:14 | 43.74171 | -76.09367 | 16476 ft | 121 kts | 204° |
| 2026-05-06 01:14 | 43.73351 | -76.09608 | 16841 ft | 123 kts | 205° |
| 2026-05-06 01:14 | 43.72503 | -76.09855 | 17201 ft | 124 kts | 205° |
| 2026-05-06 01:15 | 43.71674 | -76.10094 | 17585 ft | 123 kts | 205° |
| 2026-05-06 01:15 | 43.70848 | -76.10333 | 17932 ft | 123 kts | 204° |
| 2026-05-06 01:15 | 43.69989 | -76.10583 | 18230 ft | 126 kts | 205° |
| 2026-05-06 01:15 | 43.69143 | -76.10831 | 18591 ft | 125 kts | 204° |
| 2026-05-06 01:16 | 43.68284 | -76.11080 | 18893 ft | 127 kts | 204° |
| 2026-05-06 01:16 | 43.67431 | -76.11325 | 19267 ft | 125 kts | 204° |
| 2026-05-06 01:16 | 43.66575 | -76.11619 | 19512 ft | 125 kts | 213° |
| 2026-05-06 01:16 | 43.65719 | -76.11930 | 19820 ft | 134 kts | 198° |
| 2026-05-06 01:17 | 43.64746 | -76.12005 | 19875 ft | 150 kts | 198° |
| 2026-05-06 01:17 | 43.63659 | -76.12150 | 19873 ft | 163 kts | 198° |
| 2026-05-06 01:17 | 43.62483 | -76.12329 | 19870 ft | 174 kts | 198° |
| 2026-05-06 01:17 | 43.61261 | -76.12529 | 19870 ft | 182 kts | 198° |
| 2026-05-06 01:18 | 43.59982 | -76.12743 | 19870 ft | 189 kts | 198° |
| 2026-05-06 01:18 | 43.58651 | -76.12975 | 19866 ft | 193 kts | 198° |
| 2026-05-06 01:18 | 43.57328 | -76.13208 | 19864 ft | 197 kts | 197° |
| 2026-05-06 01:18 | 43.55949 | -76.13453 | 19869 ft | 199 kts | 197° |
| 2026-05-06 01:19 | 43.54581 | -76.13691 | 19863 ft | 201 kts | 197° |
| 2026-05-06 01:19 | 43.53186 | -76.13939 | 19864 ft | 203 kts | 197° |
| 2026-05-06 01:19 | 43.51781 | -76.14184 | 19863 ft | 204 kts | 197° |
| 2026-05-06 01:19 | 43.50371 | -76.14435 | 19866 ft | 205 kts | 197° |
| 2026-05-06 01:20 | 43.48976 | -76.14682 | 19867 ft | 205 kts | 196° |
| 2026-05-06 01:20 | 43.47548 | -76.14929 | 19868 ft | 205 kts | 196° |
| 2026-05-06 01:20 | 43.46130 | -76.15180 | 19866 ft | 206 kts | 197° |
| 2026-05-06 01:20 | 43.44725 | -76.15428 | 19853 ft | 205 kts | 197° |
| 2026-05-06 01:21 | 43.43306 | -76.15678 | 19867 ft | 206 kts | 197° |
| 2026-05-06 01:21 | 43.41897 | -76.15926 | 19868 ft | 206 kts | 197° |
| 2026-05-06 01:21 | 43.40490 | -76.16174 | 19870 ft | 206 kts | 197° |
| 2026-05-06 01:21 | 43.39084 | -76.16424 | 19864 ft | 206 kts | 196° |
| 2026-05-06 01:22 | 43.37671 | -76.16670 | 19856 ft | 206 kts | 197° |
| 2026-05-06 01:22 | 43.36269 | -76.16911 | 19866 ft | 205 kts | 197° |
| 2026-05-06 01:22 | 43.34858 | -76.17162 | 19875 ft | 206 kts | 197° |
| 2026-05-06 01:22 | 43.33154 | -76.17464 | 19872 ft | 207 kts | 197° |
| 2026-05-06 01:23 | 43.31704 | -76.17718 | 19866 ft | 208 kts | 197° |
| 2026-05-06 01:23 | 43.30283 | -76.17967 | 19860 ft | 208 kts | 197° |
| 2026-05-06 01:23 | 43.28859 | -76.18216 | 19861 ft | 207 kts | 197° |
| 2026-05-06 01:23 | 43.27424 | -76.18465 | 19868 ft | 207 kts | 197° |
| 2026-05-06 01:24 | 43.25995 | -76.18716 | 19864 ft | 207 kts | 197° |
| 2026-05-06 01:24 | 43.24567 | -76.18966 | 19865 ft | 207 kts | 196° |
| 2026-05-06 01:24 | 43.23148 | -76.19215 | 19878 ft | 208 kts | 197° |
| 2026-05-06 01:24 | 43.21727 | -76.19464 | 19871 ft | 208 kts | 197° |
| 2026-05-06 01:25 | 43.20295 | -76.19715 | 19868 ft | 208 kts | 197° |
| 2026-05-06 01:25 | 43.18863 | -76.19963 | 19868 ft | 208 kts | 197° |
| 2026-05-06 01:25 | 43.17459 | -76.20261 | 19857 ft | 201 kts | 206° |
| 2026-05-06 01:25 | 43.16531 | -76.21529 | 19866 ft | 193 kts | 245° |
| 2026-05-06 01:26 | 43.16230 | -76.23314 | 19873 ft | 197 kts | 256° |
| 2026-05-06 01:26 | 43.16082 | -76.25181 | 19873 ft | 197 kts | 258° |
| 2026-05-06 01:26 | 43.15981 | -76.27049 | 19878 ft | 198 kts | 260° |
| 2026-05-06 01:26 | 43.15906 | -76.28902 | 19875 ft | 198 kts | 260° |
| 2026-05-06 01:27 | 43.15841 | -76.30804 | 19870 ft | 198 kts | 260° |
| 2026-05-06 01:27 | 43.15785 | -76.32662 | 19879 ft | 198 kts | 261° |
| 2026-05-06 01:27 | 43.15731 | -76.34551 | 19878 ft | 199 kts | 261° |
| 2026-05-06 01:27 | 43.15685 | -76.36422 | 19879 ft | 199 kts | 261° |
| 2026-05-06 01:28 | 43.15641 | -76.38287 | 19871 ft | 199 kts | 261° |
| 2026-05-06 01:28 | 43.15590 | -76.40194 | 19877 ft | 199 kts | 261° |
| 2026-05-06 01:28 | 43.15543 | -76.42059 | 19873 ft | 199 kts | 261° |
| 2026-05-06 01:28 | 43.15499 | -76.43943 | 19870 ft | 199 kts | 261° |
| 2026-05-06 01:29 | 43.15453 | -76.45827 | 19876 ft | 199 kts | 261° |
| 2026-05-06 01:29 | 43.15404 | -76.47709 | 19868 ft | 199 kts | 260° |
| 2026-05-06 01:29 | 43.15359 | -76.49586 | 19879 ft | 199 kts | 261° |
| 2026-05-06 01:29 | 43.15309 | -76.51482 | 19869 ft | 199 kts | 261° |
| 2026-05-06 01:30 | 43.15262 | -76.53344 | 19861 ft | 199 kts | 261° |
| 2026-05-06 01:30 | 43.15214 | -76.55235 | 19869 ft | 199 kts | 260° |
| 2026-05-06 01:30 | 43.15166 | -76.57117 | 19869 ft | 198 kts | 261° |
| 2026-05-06 01:30 | 43.15116 | -76.59003 | 19868 ft | 198 kts | 261° |
| 2026-05-06 01:31 | 43.15068 | -76.60882 | 19869 ft | 198 kts | 261° |
| 2026-05-06 01:31 | 43.15019 | -76.62762 | 19861 ft | 198 kts | 260° |
| 2026-05-06 01:31 | 43.14970 | -76.64626 | 19859 ft | 198 kts | 260° |
| 2026-05-06 01:31 | 43.14918 | -76.66496 | 19871 ft | 198 kts | 260° |
| 2026-05-06 01:32 | 43.14868 | -76.68388 | 19874 ft | 198 kts | 260° |
| 2026-05-06 01:32 | 43.14819 | -76.70259 | 19873 ft | 199 kts | 259° |
| 2026-05-06 01:32 | 43.14766 | -76.72193 | 19872 ft | 199 kts | 260° |
| 2026-05-06 01:32 | 43.14716 | -76.74097 | 19867 ft | 199 kts | 259° |
| 2026-05-06 01:33 | 43.14665 | -76.75969 | 19867 ft | 199 kts | 259° |
| 2026-05-06 01:33 | 43.14611 | -76.77856 | 19863 ft | 199 kts | 260° |
| 2026-05-06 01:33 | 43.14561 | -76.79742 | 19872 ft | 199 kts | 260° |
| 2026-05-06 01:33 | 43.14507 | -76.81629 | 19870 ft | 199 kts | 260° |
| 2026-05-06 01:34 | 43.14454 | -76.83500 | 19873 ft | 199 kts | 260° |
| 2026-05-06 01:34 | 43.14402 | -76.85387 | 19870 ft | 199 kts | 260° |
| 2026-05-06 01:34 | 43.14350 | -76.87259 | 19873 ft | 199 kts | 259° |
| 2026-05-06 01:34 | 43.14294 | -76.89158 | 19873 ft | 199 kts | 260° |
| 2026-05-06 01:35 | 43.14241 | -76.91046 | 19876 ft | 199 kts | 259° |
| 2026-05-06 01:35 | 43.14186 | -76.92917 | 19877 ft | 199 kts | 260° |
| 2026-05-06 01:35 | 43.14132 | -76.94814 | 19877 ft | 199 kts | 260° |
| 2026-05-06 01:35 | 43.14079 | -76.96666 | 19877 ft | 199 kts | 260° |
| 2026-05-06 01:36 | 43.14024 | -76.98555 | 19878 ft | 198 kts | 259° |
| 2026-05-06 01:36 | 43.13967 | -77.00447 | 19877 ft | 198 kts | 260° |
| 2026-05-06 01:36 | 43.13910 | -77.02297 | 19880 ft | 198 kts | 259° |
| 2026-05-06 01:36 | 43.13858 | -77.04180 | 19924 ft | 196 kts | 259° |
| 2026-05-06 01:37 | 43.13800 | -77.06026 | 19922 ft | 197 kts | 260° |
| 2026-05-06 01:37 | 43.13739 | -77.07919 | 19731 ft | 205 kts | 259° |
| 2026-05-06 01:37 | 43.13678 | -77.09882 | 19542 ft | 210 kts | 260° |
| 2026-05-06 01:37 | 43.13617 | -77.11890 | 19359 ft | 214 kts | 260° |
| 2026-05-06 01:38 | 43.13556 | -77.13928 | 19180 ft | 217 kts | 260° |
| 2026-05-06 01:38 | 43.13495 | -77.15988 | 19002 ft | 218 kts | 260° |
| 2026-05-06 01:38 | 43.13428 | -77.18032 | 18829 ft | 219 kts | 261° |
| 2026-05-06 01:38 | 43.13366 | -77.20119 | 18654 ft | 220 kts | 261° |
| 2026-05-06 01:39 | 43.13300 | -77.22201 | 18491 ft | 221 kts | 261° |
| 2026-05-06 01:39 | 43.13234 | -77.24288 | 18314 ft | 221 kts | 261° |
| 2026-05-06 01:39 | 43.13171 | -77.26374 | 18141 ft | 221 kts | 260° |
| 2026-05-06 01:39 | 43.13102 | -77.28481 | 17974 ft | 221 kts | 260° |
| 2026-05-06 01:40 | 43.13034 | -77.30582 | 17808 ft | 221 kts | 261° |
| 2026-05-06 01:40 | 43.12967 | -77.32671 | 17642 ft | 221 kts | 261° |
| 2026-05-06 01:40 | 43.12901 | -77.34740 | 17479 ft | 221 kts | 261° |
| 2026-05-06 01:40 | 43.12832 | -77.36838 | 17323 ft | 220 kts | 261° |
| 2026-05-06 01:41 | 43.12766 | -77.38926 | 17164 ft | 220 kts | 261° |
| 2026-05-06 01:41 | 43.12697 | -77.40995 | 16996 ft | 219 kts | 261° |
| 2026-05-06 01:41 | 43.12624 | -77.43076 | 16791 ft | 220 kts | 261° |
| 2026-05-06 01:41 | 43.12556 | -77.45158 | 16566 ft | 221 kts | 261° |
| 2026-05-06 01:42 | 43.12484 | -77.47267 | 16344 ft | 222 kts | 261° |
| 2026-05-06 01:42 | 43.12415 | -77.49355 | 16121 ft | 222 kts | 261° |
| 2026-05-06 01:42 | 43.12344 | -77.51447 | 15896 ft | 223 kts | 261° |
| 2026-05-06 01:42 | 43.12273 | -77.53559 | 15679 ft | 223 kts | 261° |
| 2026-05-06 01:43 | 43.12197 | -77.55673 | 15459 ft | 224 kts | 261° |
| 2026-05-06 01:43 | 43.12127 | -77.57803 | 15238 ft | 224 kts | 261° |
| 2026-05-06 01:43 | 43.12051 | -77.59907 | 15027 ft | 224 kts | 262° |
| 2026-05-06 01:43 | 43.11979 | -77.62032 | 14813 ft | 224 kts | 262° |
| 2026-05-06 01:44 | 43.11906 | -77.64133 | 14602 ft | 224 kts | 262° |
| 2026-05-06 01:44 | 43.11832 | -77.66238 | 14401 ft | 224 kts | 261° |
| 2026-05-06 01:44 | 43.11575 | -77.68308 | 14206 ft | 219 kts | 245° |
| 2026-05-06 01:44 | 43.11361 | -77.70342 | 13979 ft | 230 kts | 270° |
| 2026-05-06 01:45 | 43.11524 | -77.72496 | 13791 ft | 228 kts | 267° |
| 2026-05-06 01:45 | 43.11633 | -77.74648 | 13606 ft | 226 kts | 265° |
| 2026-05-06 01:45 | 43.11692 | -77.76774 | 13422 ft | 226 kts | 265° |
| 2026-05-06 01:45 | 43.11719 | -77.78909 | 13241 ft | 226 kts | 264° |
| 2026-05-06 01:46 | 43.11729 | -77.81045 | 13059 ft | 225 kts | 263° |
| 2026-05-06 01:46 | 43.11733 | -77.83180 | 12878 ft | 225 kts | 263° |
| 2026-05-06 01:46 | 43.11727 | -77.85313 | 12698 ft | 225 kts | 264° |
| 2026-05-06 01:46 | 43.11722 | -77.87453 | 12515 ft | 225 kts | 263° |
| 2026-05-06 01:47 | 43.11713 | -77.89591 | 12316 ft | 225 kts | 263° |
| 2026-05-06 01:47 | 43.11703 | -77.91708 | 12128 ft | 225 kts | 263° |
| 2026-05-06 01:47 | 43.11694 | -77.93848 | 11943 ft | 224 kts | 263° |
| 2026-05-06 01:47 | 43.11686 | -77.95968 | 11767 ft | 223 kts | 263° |
| 2026-05-06 01:48 | 43.11674 | -77.98068 | 11571 ft | 221 kts | 263° |
| 2026-05-06 01:48 | 43.11663 | -78.00140 | 11389 ft | 220 kts | 263° |
| 2026-05-06 01:48 | 43.11654 | -78.02232 | 11204 ft | 219 kts | 263° |
| 2026-05-06 01:48 | 43.11641 | -78.04315 | 11036 ft | 218 kts | 263° |
| 2026-05-06 01:49 | 43.11628 | -78.06372 | 10986 ft | 215 kts | 263° |
| 2026-05-06 01:49 | 43.11615 | -78.08401 | 10988 ft | 211 kts | 262° |